createdAt,value
2023-04-27T00:00:00.941Z,13.98
2023-04-27T00:03:35.635Z,13.94
2023-04-27T00:06:42.445Z,13.17
2023-04-27T00:09:48.326Z,13.10
2023-04-27T00:12:55.425Z,13.07
2023-04-27T00:16:03.980Z,13.18
2023-04-27T00:19:14.189Z,13.71
2023-04-27T00:22:22.195Z,14.27
2023-04-27T00:25:29.180Z,14.02
2023-04-27T00:28:35.192Z,14.12
2023-04-27T00:31:41.928Z,14.10
2023-04-27T00:34:50.514Z,14.19
2023-04-27T00:37:57.947Z,15.46
2023-04-27T00:41:09.480Z,15.30
2023-04-27T00:44:16.206Z,15.92
2023-04-27T00:47:22.985Z,15.76
2023-04-27T00:50:34.476Z,15.82
2023-04-27T00:53:42.033Z,16.05
2023-04-27T00:56:52.160Z,16.42
2023-04-27T00:59:58.670Z,15.94
2023-04-27T01:03:06.629Z,16.07
2023-04-27T01:06:15.191Z,15.56
2023-04-27T01:09:24.104Z,15.89
2023-04-27T01:12:30.077Z,15.60
2023-04-27T01:15:37.059Z,16.02
2023-04-27T01:18:44.619Z,16.68
2023-04-27T01:21:54.054Z,16.15
2023-04-27T01:25:02.575Z,15.92
2023-04-27T01:28:11.327Z,16.07
2023-04-27T01:31:17.719Z,16.42
2023-04-27T01:34:27.161Z,15.96
2023-04-27T01:37:33.069Z,15.95
2023-04-27T01:40:42.529Z,16.07
2023-04-27T01:43:48.399Z,16.11
2023-04-27T01:46:55.190Z,16.45
2023-04-27T01:50:01.143Z,16.34
2023-04-27T01:53:07.905Z,16.52
2023-04-27T01:56:17.050Z,16.34
2023-04-27T01:59:23.915Z,15.69
2023-04-27T02:02:31.009Z,15.77
2023-04-27T02:05:37.996Z,15.85
2023-04-27T02:08:44.036Z,15.37
2023-04-27T02:11:53.337Z,15.12
2023-04-27T02:14:59.403Z,14.76
2023-04-27T02:18:06.907Z,14.63
2023-04-27T02:21:13.266Z,14.80
2023-04-27T02:24:20.564Z,14.49
2023-04-27T02:27:29.256Z,15.03
2023-04-27T02:30:38.159Z,15.10
2023-04-27T02:33:44.176Z,14.95
2023-04-27T02:36:50.958Z,15.79
2023-04-27T02:39:56.950Z,16.07
2023-04-27T02:43:06.599Z,16.73
2023-04-27T02:46:12.629Z,17.53
2023-04-27T02:49:19.653Z,18.55
2023-04-27T02:52:25.755Z,17.70
2023-04-27T02:55:32.991Z,18.84
2023-04-27T02:58:41.477Z,18.13
2023-04-27T03:01:51.659Z,18.62
2023-04-27T03:04:57.902Z,18.46
2023-04-27T03:08:04.703Z,18.19
2023-04-27T03:11:12.817Z,18.27
2023-04-27T03:14:23.492Z,20.64
2023-04-27T03:17:31.558Z,22.16
2023-04-27T03:20:38.325Z,20.55
2023-04-27T03:23:44.318Z,19.81
2023-04-27T03:26:51.527Z,19.75
2023-04-27T03:30:03.870Z,19.73
2023-04-27T03:33:10.752Z,20.50
2023-04-27T03:36:16.886Z,21.00
2023-04-27T03:39:23.743Z,19.91
2023-04-27T03:42:29.871Z,19.08
2023-04-27T03:45:39.481Z,18.81
2023-04-27T03:48:47.498Z,19.73
2023-04-27T03:51:54.754Z,19.23
2023-04-27T03:55:00.864Z,19.44
2023-04-27T03:58:07.817Z,19.44
2023-04-27T04:01:16.929Z,19.30
2023-04-27T04:04:24.821Z,19.35
2023-04-27T04:07:31.511Z,19.70
2023-04-27T04:10:39.543Z,19.04
2023-04-27T04:13:46.439Z,20.07
2023-04-27T04:16:56.180Z,18.68
2023-04-27T04:20:02.491Z,18.10
2023-04-27T04:23:09.537Z,18.68
2023-04-27T04:26:15.845Z,19.42
2023-04-27T04:29:22.998Z,18.60
2023-04-27T04:32:32.212Z,18.82
2023-04-27T04:35:41.838Z,18.12
2023-04-27T04:38:47.957Z,18.65
2023-04-27T04:41:56.736Z,17.36
2023-04-27T04:45:07.678Z,17.46
2023-04-27T04:48:18.433Z,17.02
2023-04-27T04:51:24.853Z,16.67
2023-04-27T04:54:31.847Z,16.21
2023-04-27T04:57:38.242Z,16.19
2023-04-27T05:00:46.047Z,15.68
2023-04-27T05:03:56.559Z,16.06
2023-04-27T05:07:04.875Z,16.45
2023-04-27T05:10:12.064Z,15.87
2023-04-27T05:13:18.957Z,16.19
2023-04-27T05:16:26.740Z,15.28
2023-04-27T05:19:37.320Z,15.73
2023-04-27T05:22:47.765Z,15.76
2023-04-27T05:25:54.473Z,15.58
2023-04-27T05:29:00.361Z,15.14
2023-04-27T05:32:17.092Z,15.14
2023-04-27T05:35:25.740Z,14.75
2023-04-27T05:38:33.754Z,14.25
2023-04-27T05:41:39.834Z,14.18
2023-04-27T05:44:46.629Z,13.96
2023-04-27T05:47:52.781Z,13.96
2023-04-27T05:51:09.362Z,14.04
2023-04-27T05:54:15.376Z,13.17
2023-04-27T05:57:22.244Z,12.32
2023-04-27T06:00:28.847Z,12.39
2023-04-27T06:03:35.975Z,13.07
2023-04-27T06:06:45.104Z,13.28
2023-04-27T06:09:56.918Z,12.97
2023-04-27T06:13:05.028Z,13.39
2023-04-27T06:16:18.130Z,15.51
2023-04-27T06:19:24.122Z,12.33
2023-04-27T06:22:34.635Z,12.96
2023-04-27T06:25:40.992Z,13.31
2023-04-27T06:28:47.993Z,12.73
2023-04-27T06:31:53.946Z,12.82
2023-04-27T06:35:00.993Z,12.98
2023-04-27T06:38:10.765Z,14.07
2023-04-27T06:41:17.516Z,12.08
2023-04-27T06:44:25.861Z,12.50
2023-04-27T06:47:32.824Z,11.75
2023-04-27T06:50:38.741Z,12.21
2023-04-27T06:53:48.172Z,12.73
2023-04-27T06:56:55.088Z,12.15
2023-04-27T07:00:02.225Z,11.89
2023-04-27T07:03:08.388Z,10.08
2023-04-27T07:06:15.388Z,9.87
2023-04-27T07:09:27.500Z,9.50
2023-04-27T07:12:34.688Z,10.23
2023-04-27T07:15:40.760Z,10.66
2023-04-27T07:18:47.588Z,10.71
2023-04-27T07:21:53.685Z,9.55
2023-04-27T07:25:04.502Z,9.79
2023-04-27T07:28:10.689Z,9.12
2023-04-27T07:31:18.012Z,8.04
2023-04-27T07:34:24.337Z,8.96
2023-04-27T07:37:31.456Z,8.63
2023-04-27T07:40:40.655Z,9.19
2023-04-27T07:43:48.690Z,9.56
2023-04-27T07:46:58.805Z,9.05
2023-04-27T07:50:06.551Z,8.97
2023-04-27T07:53:12.590Z,8.44
2023-04-27T07:56:22.012Z,9.95
2023-04-27T07:59:28.094Z,10.00
2023-04-27T08:02:35.085Z,8.94
2023-04-27T08:05:41.423Z,9.86
2023-04-27T08:08:48.364Z,8.24
2023-04-27T08:11:57.314Z,7.38
2023-04-27T08:15:04.299Z,12.34
2023-04-27T08:18:10.253Z,12.88
2023-04-27T08:21:17.186Z,8.77
2023-04-27T08:24:24.012Z,9.26
2023-04-27T08:27:34.918Z,8.85
2023-04-27T08:30:40.987Z,8.45
2023-04-27T08:33:47.920Z,9.06
2023-04-27T08:36:54.382Z,8.21
2023-04-27T08:40:01.432Z,7.57
2023-04-27T08:43:12.029Z,7.06
2023-04-27T08:46:23.168Z,6.97
2023-04-27T08:49:29.711Z,7.28
2023-04-27T08:52:37.677Z,8.14
2023-04-27T08:55:43.735Z,7.68
2023-04-27T08:58:55.211Z,7.47
2023-04-27T09:02:01.655Z,7.08
2023-04-27T09:05:10.164Z,7.12
2023-04-27T09:08:16.079Z,7.11
2023-04-27T09:11:35.207Z,7.43
2023-04-27T09:14:47.257Z,7.33
2023-04-27T09:17:59.639Z,7.56
2023-04-27T09:21:14.249Z,7.58
2023-04-27T09:24:24.906Z,7.61
2023-04-27T09:27:31.067Z,7.06
2023-04-27T09:30:40.720Z,6.91
2023-04-27T09:33:49.045Z,8.08
2023-04-27T09:36:56.960Z,7.55
2023-04-27T09:40:05.868Z,7.42
2023-04-27T09:43:14.826Z,7.47
2023-04-27T09:46:26.276Z,7.05
2023-04-27T09:49:36.981Z,7.68
2023-04-27T09:52:43.165Z,8.05
2023-04-27T09:56:11.420Z,8.36
2023-04-27T09:59:45.001Z,8.92
2023-04-27T10:03:18.223Z,7.64
2023-04-27T10:07:06.878Z,8.02
2023-04-27T10:10:22.120Z,8.46
2023-04-27T10:13:30.392Z,8.89
2023-04-27T10:16:50.155Z,8.47
2023-04-27T10:20:02.094Z,9.96
2023-04-27T10:23:09.320Z,9.59
2023-04-27T10:26:15.353Z,9.14
2023-04-27T10:29:22.219Z,9.02
2023-04-27T10:32:29.875Z,9.63
2023-04-27T10:35:42.496Z,10.13
2023-04-27T10:38:48.643Z,9.12
2023-04-27T10:41:59.342Z,7.68
2023-04-27T10:45:11.789Z,7.76
2023-04-27T10:48:18.661Z,7.44
2023-04-27T10:51:31.292Z,7.58
2023-04-27T10:54:40.238Z,7.62
2023-04-27T10:57:51.543Z,9.66
2023-04-27T11:00:58.353Z,10.61
2023-04-27T11:04:06.785Z,9.14
2023-04-27T11:07:26.422Z,8.05
2023-04-27T11:10:36.950Z,7.83
2023-04-27T11:13:46.772Z,7.69
2023-04-27T11:16:53.330Z,7.42
2023-04-27T11:20:00.411Z,8.09
2023-04-27T11:23:13.272Z,8.62
2023-04-27T11:26:22.885Z,9.05
2023-04-27T11:29:28.958Z,8.26
2023-04-27T11:32:36.779Z,8.70
2023-04-27T11:35:43.182Z,8.84
2023-04-27T11:38:52.956Z,8.62
2023-04-27T11:41:59.049Z,8.20
2023-04-27T11:45:09.663Z,8.13
2023-04-27T11:48:19.338Z,9.14
2023-04-27T11:51:29.218Z,8.78
2023-04-27T11:54:38.030Z,8.76
2023-04-27T11:57:45.678Z,9.76
2023-04-27T12:00:52.279Z,8.04
2023-04-27T12:04:02.259Z,8.55
2023-04-27T12:07:16.948Z,9.26
2023-04-27T12:10:25.974Z,8.97
2023-04-27T12:13:32.032Z,8.60
2023-04-27T12:16:45.436Z,8.00
2023-04-27T12:19:51.810Z,7.47
2023-04-27T12:23:01.656Z,7.95
2023-04-27T12:26:07.829Z,8.45
2023-04-27T12:29:14.636Z,8.74
2023-04-27T12:32:20.540Z,7.83
2023-04-27T12:35:27.682Z,7.44
2023-04-27T12:38:36.521Z,8.00
2023-04-27T12:41:43.349Z,8.39
2023-04-27T12:44:49.230Z,8.57
2023-04-27T12:48:04.018Z,9.14
2023-04-27T12:51:10.468Z,8.92
2023-04-27T12:54:20.218Z,8.71
2023-04-27T12:57:29.425Z,9.84
2023-04-27T13:00:37.051Z,8.85
2023-04-27T13:03:43.215Z,9.09
2023-04-27T13:06:50.329Z,10.61
2023-04-27T13:09:59.081Z,9.54
2023-04-27T13:13:07.313Z,9.66
2023-04-27T13:16:13.444Z,9.58
2023-04-27T13:19:20.339Z,9.91
2023-04-27T13:22:28.514Z,10.55
2023-04-27T13:25:37.951Z,9.31
2023-04-27T13:28:44.069Z,9.03
2023-04-27T13:31:51.004Z,9.02
2023-04-27T13:34:57.003Z,8.93
2023-04-27T13:38:03.940Z,8.69
2023-04-27T13:41:12.890Z,9.21
2023-04-27T13:44:21.705Z,9.82
2023-04-27T13:47:29.557Z,9.47
2023-04-27T13:50:37.258Z,8.82
2023-04-27T13:53:43.216Z,9.35
2023-04-27T13:56:58.688Z,9.06
2023-04-27T14:00:08.169Z,8.73
2023-04-27T14:03:16.472Z,9.49
2023-04-27T14:06:22.693Z,9.56
2023-04-27T14:09:29.625Z,9.54
2023-04-27T14:12:38.982Z,9.61
2023-04-27T14:15:46.125Z,9.84
2023-04-27T14:18:52.632Z,9.57
2023-04-27T14:22:02.476Z,9.20
2023-04-27T14:25:10.105Z,9.11
2023-04-27T14:28:19.756Z,9.37
2023-04-27T14:31:28.439Z,8.19
2023-04-27T14:34:35.385Z,8.15
2023-04-27T14:37:41.391Z,7.16
2023-04-27T14:40:48.174Z,7.56
2023-04-27T14:44:05.055Z,7.59
2023-04-27T14:47:13.912Z,7.69
2023-04-27T14:50:20.476Z,8.16
2023-04-27T14:53:27.336Z,8.02
2023-04-27T14:56:34.037Z,7.60
2023-04-27T14:59:43.508Z,7.89
2023-04-27T15:02:49.623Z,7.82
2023-04-27T15:05:56.524Z,9.66
2023-04-27T15:09:02.601Z,8.68
2023-04-27T15:12:12.409Z,8.00
2023-04-27T15:15:21.263Z,7.36
2023-04-27T15:18:29.066Z,7.47
2023-04-27T15:21:35.432Z,7.47
2023-04-27T15:24:42.239Z,7.11
2023-04-27T15:27:48.382Z,7.81
2023-04-27T15:30:57.960Z,8.79
2023-04-27T15:34:06.712Z,8.98
2023-04-27T15:37:19.153Z,9.26
2023-04-27T15:40:29.211Z,9.23
2023-04-27T15:43:36.732Z,8.10
2023-04-27T15:46:45.446Z,8.33
2023-04-27T15:49:58.366Z,8.19
2023-04-27T15:53:07.966Z,8.99
2023-04-27T15:56:16.102Z,20.79
2023-04-27T15:59:22.340Z,8.64
2023-04-27T16:02:31.863Z,10.27
2023-04-27T16:05:37.899Z,26.40
2023-04-27T16:08:44.845Z,41.68
2023-04-27T16:11:50.856Z,26.23
2023-04-27T16:15:00.057Z,7.56
2023-04-27T16:18:09.594Z,12.28
2023-04-27T16:21:16.969Z,12.48
2023-04-27T16:24:29.535Z,10.78
2023-04-27T16:27:36.380Z,12.10
2023-04-27T16:30:42.565Z,12.07
2023-04-27T16:33:52.440Z,15.69
2023-04-27T16:36:58.994Z,11.82
2023-04-27T16:40:08.510Z,10.90
2023-04-27T16:43:18.350Z,11.56
2023-04-27T16:46:25.382Z,9.24
2023-04-27T16:49:38.742Z,9.75
2023-04-27T16:52:45.791Z,13.37
2023-04-27T16:55:53.732Z,10.86
2023-04-27T16:59:01.661Z,10.31
2023-04-27T17:02:23.170Z,11.10
2023-04-27T17:05:45.808Z,11.81
2023-04-27T17:09:08.520Z,9.83
2023-04-27T17:12:21.052Z,9.49
2023-04-27T17:15:28.944Z,10.40
2023-04-27T17:18:36.241Z,10.56
2023-04-27T17:21:44.838Z,9.03
2023-04-27T17:24:51.722Z,9.64
2023-04-27T17:28:00.109Z,9.62
2023-04-27T17:31:08.288Z,10.14
2023-04-27T17:34:14.930Z,11.85
2023-04-27T17:37:24.413Z,10.20
2023-04-27T17:40:30.571Z,9.99
2023-04-27T17:43:37.921Z,10.49
2023-04-27T17:46:49.942Z,11.17
2023-04-27T17:49:56.831Z,12.45
2023-04-27T17:53:05.362Z,11.80
2023-04-27T17:56:12.326Z,12.63
2023-04-27T17:59:19.678Z,12.97
2023-04-27T18:02:26.713Z,13.27
2023-04-27T18:05:32.962Z,13.44
2023-04-27T18:08:42.358Z,14.11
2023-04-27T18:11:51.281Z,14.18
2023-04-27T18:14:58.887Z,14.48
2023-04-27T18:18:23.169Z,14.80
2023-04-27T18:21:33.276Z,16.64
2023-04-27T18:24:48.513Z,17.60
2023-04-27T18:27:57.341Z,20.85
2023-04-27T18:31:03.502Z,25.55
2023-04-27T18:34:10.226Z,29.95
2023-04-27T18:37:16.729Z,34.20
2023-04-27T18:40:26.453Z,41.44
2023-04-27T18:43:33.903Z,45.35
2023-04-27T18:46:40.617Z,41.33
2023-04-27T18:49:46.662Z,41.30
2023-04-27T18:52:53.666Z,42.77
2023-04-27T18:56:03.286Z,44.39
2023-04-27T18:59:10.121Z,43.82
2023-04-27T19:02:16.272Z,44.55
2023-04-27T19:05:23.299Z,43.31
2023-04-27T19:08:29.257Z,41.10
2023-04-27T19:11:40.127Z,42.80
2023-04-27T19:14:46.122Z,47.47
2023-04-27T19:18:02.850Z,76.26
2023-04-27T19:21:15.891Z,85.02
2023-04-27T19:24:22.758Z,77.03
2023-04-27T19:27:31.509Z,67.19
2023-04-27T19:30:38.516Z,61.38
2023-04-27T19:33:47.425Z,62.99
2023-04-27T19:37:01.813Z,42.74
2023-04-27T19:40:09.769Z,40.97
2023-04-27T19:43:19.650Z,46.55
2023-04-27T19:46:26.913Z,60.26
2023-04-27T19:49:35.800Z,51.07
2023-04-27T19:52:41.768Z,57.14
2023-04-27T19:55:51.912Z,68.35
2023-04-27T19:59:00.515Z,77.53
2023-04-27T20:02:07.532Z,87.84
2023-04-27T20:05:13.961Z,85.26
2023-04-27T20:08:21.002Z,86.19
2023-04-27T20:11:27.966Z,88.42
2023-04-27T20:14:39.013Z,80.68
2023-04-27T20:17:45.147Z,86.53
2023-04-27T20:20:53.522Z,87.85
2023-04-27T20:24:07.550Z,84.26
2023-04-27T20:27:18.730Z,83.04
2023-04-27T20:30:30.752Z,81.88
2023-04-27T20:33:38.578Z,82.84
2023-04-27T20:36:54.556Z,84.13
2023-04-27T20:40:01.610Z,82.65
2023-04-27T20:43:08.358Z,85.46
2023-04-27T20:46:17.769Z,89.83
2023-04-27T20:49:34.555Z,92.91
2023-04-27T20:52:42.086Z,93.88
2023-04-27T20:55:47.970Z,88.79
2023-04-27T20:58:54.688Z,116.57
2023-04-27T21:02:10.267Z,118.25
2023-04-27T21:05:19.006Z,115.76
2023-04-27T21:08:25.183Z,113.08
2023-04-27T21:11:31.932Z,113.69
2023-04-27T21:14:38.000Z,118.36
2023-04-27T21:17:47.415Z,124.30
2023-04-27T21:20:53.642Z,129.19
2023-04-27T21:24:07.264Z,152.64
2023-04-27T21:27:19.746Z,153.29
2023-04-27T21:30:27.125Z,148.69
2023-04-27T21:33:35.784Z,143.03
2023-04-27T21:36:42.829Z,127.69
2023-04-27T21:39:48.907Z,123.31
2023-04-27T21:42:56.711Z,120.74
2023-04-27T21:46:02.636Z,119.33
2023-04-27T21:49:20.586Z,116.40
2023-04-27T21:52:28.009Z,111.96
2023-04-27T21:55:34.797Z,113.33
2023-04-27T21:58:40.698Z,102.86
2023-04-27T22:01:47.434Z,104.31
2023-04-27T22:04:56.894Z,104.45
2023-04-27T22:08:03.926Z,103.17
2023-04-27T22:11:09.803Z,103.46
2023-04-27T22:14:17.354Z,105.03
2023-04-27T22:17:26.443Z,102.84
2023-04-27T22:20:36.177Z,99.03
2023-04-27T22:23:42.077Z,93.17
2023-04-27T22:26:48.826Z,96.17
2023-04-27T22:29:54.730Z,94.85
2023-04-27T22:33:08.633Z,94.61
2023-04-27T22:36:22.977Z,92.17
2023-04-27T22:39:29.803Z,87.30
2023-04-27T22:42:35.861Z,80.88
2023-04-27T22:45:42.634Z,82.65
2023-04-27T22:48:49.054Z,76.00
2023-04-27T22:51:58.787Z,79.40
2023-04-27T22:55:15.800Z,72.69
2023-04-27T22:58:24.593Z,63.16
2023-04-27T23:01:30.576Z,51.82
2023-04-27T23:04:37.508Z,42.37
2023-04-27T23:07:46.718Z,39.31
2023-04-27T23:10:54.507Z,38.36
2023-04-27T23:14:00.519Z,35.38
2023-04-27T23:17:07.726Z,33.49
2023-04-27T23:20:27.502Z,32.93
2023-04-27T23:23:37.702Z,32.93
2023-04-27T23:26:43.527Z,34.79
2023-04-27T23:29:50.202Z,36.90
2023-04-27T23:32:56.244Z,37.96
2023-04-27T23:36:03.237Z,37.53
2023-04-27T23:39:12.070Z,38.59
2023-04-27T23:42:19.015Z,38.26
2023-04-27T23:45:25.005Z,40.31
2023-04-27T23:48:31.864Z,43.84
2023-04-27T23:51:37.897Z,42.22
2023-04-27T23:54:47.275Z,44.49
2023-04-27T23:57:55.005Z,47.02
